createdAt,value
2022-09-25T00:02:50.743Z,62.30
2022-09-25T00:07:56.819Z,62.40
2022-09-25T00:12:59.431Z,62.40
2022-09-25T00:18:02.053Z,62.40
2022-09-25T00:23:06.037Z,62.40
2022-09-25T00:28:08.626Z,62.40
2022-09-25T00:33:11.223Z,62.40
2022-09-25T00:38:15.197Z,62.20
2022-09-25T00:43:32.682Z,62.30
2022-09-25T00:48:35.486Z,62.30
2022-09-25T00:53:40.836Z,62.30
2022-09-25T00:58:43.792Z,62.50
2022-09-25T01:03:46.519Z,62.40
2022-09-25T01:08:50.784Z,62.60
2022-09-25T01:13:54.566Z,62.60
2022-09-25T01:19:02.193Z,62.30
2022-09-25T01:24:23.364Z,62.20
2022-09-25T01:29:29.043Z,62.40
2022-09-25T01:34:39.344Z,62.20
2022-09-25T01:39:45.533Z,62.40
2022-09-25T01:44:54.010Z,62.20
2022-09-25T01:49:58.257Z,62.30
2022-09-25T01:55:04.330Z,62.40
2022-09-25T02:00:09.868Z,62.30
2022-09-25T02:05:14.885Z,62.30
2022-09-25T02:10:19.085Z,62.70
2022-09-25T02:15:26.546Z,62.40
2022-09-25T02:20:34.021Z,62.30
2022-09-25T02:25:38.335Z,62.20
2022-09-25T02:30:42.419Z,62.60
2022-09-25T02:35:45.038Z,62.40
2022-09-25T02:40:49.868Z,62.40
2022-09-25T02:46:02.936Z,62.50
2022-09-25T02:51:11.390Z,62.30
2022-09-25T02:56:15.420Z,62.20
2022-09-25T03:01:21.247Z,62.50
2022-09-25T03:06:24.291Z,62.40
2022-09-25T03:11:28.701Z,62.40
2022-09-25T03:16:37.051Z,62.10
2022-09-25T03:21:39.653Z,62.40
2022-09-25T03:26:42.535Z,62.20
2022-09-25T03:31:46.710Z,62.20
2022-09-25T03:36:49.300Z,62.00
2022-09-25T03:41:51.879Z,62.30
2022-09-25T03:46:55.795Z,62.40
2022-09-25T03:52:00.195Z,62.20
2022-09-25T03:57:02.775Z,62.20
2022-09-25T04:02:06.812Z,62.10
2022-09-25T04:07:10.311Z,62.40
2022-09-25T04:12:12.907Z,61.90
2022-09-25T04:17:16.835Z,62.10
2022-09-25T04:22:19.583Z,62.20
2022-09-25T04:27:22.943Z,62.30
2022-09-25T04:32:44.099Z,61.90
2022-09-25T04:37:46.681Z,62.10
2022-09-25T04:42:49.272Z,62.20
2022-09-25T04:47:53.274Z,62.40
2022-09-25T04:52:57.697Z,61.90
2022-09-25T04:58:01.534Z,62.30
2022-09-25T05:03:05.788Z,62.20
2022-09-25T05:08:08.530Z,62.20
2022-09-25T05:13:11.811Z,62.00
2022-09-25T05:18:17.549Z,62.00
2022-09-25T05:23:20.872Z,62.40
2022-09-25T05:28:24.671Z,61.90
2022-09-25T05:33:28.654Z,61.90
2022-09-25T05:38:33.090Z,62.20
2022-09-25T05:43:39.127Z,62.20
2022-09-25T05:48:43.086Z,62.20
2022-09-25T05:53:45.667Z,62.30
2022-09-25T05:58:48.357Z,62.10
2022-09-25T06:03:52.523Z,62.40
2022-09-25T06:08:55.168Z,62.10
2022-09-25T06:13:57.753Z,62.10
2022-09-25T06:19:01.684Z,62.30
2022-09-25T06:24:04.475Z,61.90
2022-09-25T06:29:07.751Z,62.00
2022-09-25T06:34:12.355Z,62.10
2022-09-25T06:39:15.282Z,62.10
2022-09-25T06:44:17.925Z,62.10
2022-09-25T06:49:22.262Z,62.10
2022-09-25T06:54:24.896Z,62.00
2022-09-25T06:59:27.478Z,61.90
2022-09-25T07:04:31.478Z,61.50
2022-09-25T07:09:34.066Z,61.90
2022-09-25T07:14:36.643Z,62.20
2022-09-25T07:19:40.592Z,62.10
2022-09-25T07:24:43.266Z,61.80
2022-09-25T07:29:45.851Z,61.60
2022-09-25T07:34:51.111Z,61.90
2022-09-25T07:39:53.705Z,62.10
2022-09-25T07:44:56.292Z,61.50
2022-09-25T07:50:00.261Z,61.70
2022-09-25T07:55:02.866Z,61.60
2022-09-25T08:00:05.915Z,61.80
2022-09-25T08:05:11.582Z,61.60
2022-09-25T08:10:14.233Z,61.60
2022-09-25T08:15:16.903Z,61.70
2022-09-25T08:20:20.927Z,61.60
2022-09-25T08:25:23.671Z,61.20
2022-09-25T08:30:26.288Z,61.70
2022-09-25T08:35:30.214Z,61.30
2022-09-25T08:40:33.234Z,61.30
2022-09-25T08:45:56.709Z,61.30
2022-09-25T08:51:03.435Z,61.10
2022-09-25T08:56:15.507Z,60.90
2022-09-25T09:01:19.733Z,60.90
2022-09-25T09:06:25.389Z,61.10
2022-09-25T09:11:31.782Z,61.10
2022-09-25T09:16:38.018Z,60.90
2022-09-25T09:21:45.526Z,60.80
2022-09-25T09:26:56.518Z,61.10
2022-09-25T09:32:03.157Z,60.90
2022-09-25T09:37:15.803Z,61.00
2022-09-25T09:42:22.030Z,61.20
2022-09-25T09:47:39.403Z,60.90
2022-09-25T09:52:45.204Z,61.10
2022-09-25T09:57:49.819Z,60.90
2022-09-25T10:02:54.434Z,61.20
2022-09-25T10:07:58.696Z,61.00
2022-09-25T10:13:06.581Z,61.30
2022-09-25T10:18:09.567Z,60.80
2022-09-25T10:23:18.934Z,61.30
2022-09-25T10:28:23.141Z,61.10
2022-09-25T10:33:26.391Z,61.20
2022-09-25T10:38:33.002Z,61.50
2022-09-25T10:43:35.835Z,61.40
2022-09-25T10:48:56.259Z,61.10
2022-09-25T10:54:13.126Z,61.20
2022-09-25T10:59:19.025Z,61.10
2022-09-25T11:04:24.629Z,61.30
2022-09-25T11:09:29.652Z,61.10
2022-09-25T11:14:33.319Z,61.30
2022-09-25T11:19:36.615Z,61.20
2022-09-25T11:24:47.254Z,61.10
2022-09-25T11:29:55.008Z,60.90
2022-09-25T11:35:13.891Z,61.00
2022-09-25T11:40:42.558Z,61.40
2022-09-25T11:45:48.799Z,61.30
2022-09-25T11:50:56.017Z,61.20
2022-09-25T11:56:04.436Z,61.10
2022-09-25T12:01:12.263Z,61.20
2022-09-25T12:06:23.013Z,61.30
2022-09-25T12:11:29.906Z,61.20
2022-09-25T12:16:36.971Z,60.90
2022-09-25T12:21:43.615Z,61.20
2022-09-25T12:26:52.726Z,61.10
2022-09-25T12:31:58.556Z,61.00
2022-09-25T12:37:07.938Z,61.20
2022-09-25T12:42:16.964Z,60.90
2022-09-25T12:47:24.202Z,61.00
2022-09-25T12:52:29.289Z,60.90
2022-09-25T12:57:37.094Z,60.80
2022-09-25T13:02:41.182Z,61.00
2022-09-25T13:07:46.645Z,61.00
2022-09-25T13:12:50.971Z,61.00
2022-09-25T13:17:53.652Z,60.80
2022-09-25T13:22:57.715Z,61.00
2022-09-25T13:28:07.811Z,61.00
2022-09-25T13:33:18.591Z,60.90
2022-09-25T13:38:35.144Z,60.80
2022-09-25T13:43:39.141Z,60.80
2022-09-25T13:48:41.760Z,61.00
2022-09-25T13:53:53.196Z,61.10
2022-09-25T13:59:20.792Z,60.90
2022-09-25T14:04:27.039Z,61.20
2022-09-25T14:09:30.551Z,60.80
2022-09-25T14:14:45.230Z,60.80
2022-09-25T14:19:49.481Z,61.00
2022-09-25T14:24:53.146Z,61.00
2022-09-25T14:30:06.388Z,61.20
2022-09-25T14:35:25.175Z,61.00
2022-09-25T14:40:33.764Z,61.00
2022-09-25T14:46:10.213Z,61.10
2022-09-25T14:51:25.513Z,61.00
2022-09-25T14:56:29.527Z,60.90
2022-09-25T15:01:32.719Z,60.90
2022-09-25T15:06:39.057Z,60.90
2022-09-25T15:11:42.600Z,60.90
2022-09-25T15:17:02.530Z,61.10
2022-09-25T15:22:10.384Z,61.10
2022-09-25T15:27:16.335Z,61.10
2022-09-25T15:32:20.246Z,61.10
2022-09-25T15:37:30.050Z,61.10
2022-09-25T15:42:32.642Z,61.00
2022-09-25T15:47:52.381Z,61.20
2022-09-25T15:52:57.652Z,61.30
2022-09-25T15:58:06.589Z,61.10
2022-09-25T16:03:32.342Z,61.00
2022-09-25T16:08:36.883Z,61.10
2022-09-25T16:13:42.321Z,61.50
2022-09-25T16:18:45.301Z,60.90
2022-09-25T16:23:56.442Z,61.30
2022-09-25T16:29:03.330Z,61.10
2022-09-25T16:34:06.750Z,61.10
2022-09-25T16:39:16.660Z,61.20
2022-09-25T16:44:20.778Z,61.10
2022-09-25T16:49:23.603Z,61.40
2022-09-25T16:54:31.642Z,61.40
2022-09-25T16:59:34.261Z,61.10
2022-09-25T17:04:38.639Z,61.20
2022-09-25T17:09:42.570Z,61.30
2022-09-25T17:14:45.167Z,61.40
2022-09-25T17:19:47.915Z,61.40
2022-09-25T17:24:51.848Z,61.50
2022-09-25T17:29:54.998Z,61.40
2022-09-25T17:34:58.479Z,61.30
2022-09-25T17:40:02.664Z,61.70
2022-09-25T17:45:26.104Z,61.70
2022-09-25T17:50:30.144Z,61.60
2022-09-25T17:55:34.253Z,61.80
2022-09-25T18:00:36.869Z,61.80
2022-09-25T18:05:39.495Z,61.60
2022-09-25T18:10:44.050Z,61.50
2022-09-25T18:15:48.311Z,61.50
2022-09-25T18:21:09.703Z,61.80
2022-09-25T18:26:13.854Z,61.80
2022-09-25T18:31:16.514Z,61.80
2022-09-25T18:36:19.127Z,62.00
2022-09-25T18:41:23.057Z,61.80
2022-09-25T18:46:26.098Z,61.50
2022-09-25T18:51:28.786Z,61.80
2022-09-25T18:56:34.477Z,61.50
2022-09-25T19:01:38.013Z,61.90
2022-09-25T19:06:40.642Z,61.60
2022-09-25T19:11:44.870Z,62.10
2022-09-25T19:16:48.231Z,62.20
2022-09-25T19:21:50.838Z,62.10
2022-09-25T19:26:56.609Z,62.00
2022-09-25T19:31:59.255Z,62.00
2022-09-25T19:37:02.177Z,61.80
2022-09-25T19:42:06.241Z,61.90
2022-09-25T19:47:08.827Z,61.70
2022-09-25T19:52:11.577Z,62.00
2022-09-25T19:57:15.539Z,62.20
2022-09-25T20:02:18.185Z,62.10
2022-09-25T20:07:20.811Z,62.00
2022-09-25T20:12:26.143Z,62.10
2022-09-25T20:17:28.872Z,61.80
2022-09-25T20:22:32.950Z,61.80
2022-09-25T20:27:37.174Z,62.30
2022-09-25T20:32:40.372Z,62.10
2022-09-25T20:37:45.009Z,61.90
2022-09-25T20:42:48.959Z,62.00
2022-09-25T20:47:53.802Z,62.00
2022-09-25T20:52:57.262Z,62.10
2022-09-25T20:58:02.518Z,62.00
2022-09-25T21:03:05.540Z,61.70
2022-09-25T21:08:09.128Z,62.10
2022-09-25T21:13:14.030Z,61.90
2022-09-25T21:18:18.081Z,62.20
2022-09-25T21:23:20.984Z,62.10
2022-09-25T21:28:25.888Z,61.80
2022-09-25T21:33:28.467Z,62.10
2022-09-25T21:38:31.370Z,62.30
2022-09-25T21:43:37.096Z,62.10
2022-09-25T21:48:40.431Z,62.10
2022-09-25T21:53:43.068Z,62.10
2022-09-25T21:58:47.502Z,61.90
2022-09-25T22:03:51.908Z,62.10
2022-09-25T22:08:55.524Z,61.90
2022-09-25T22:14:00.049Z,62.30
2022-09-25T22:19:04.749Z,62.00
2022-09-25T22:24:07.978Z,62.00
2022-09-25T22:29:12.486Z,61.90
2022-09-25T22:34:17.174Z,62.00
2022-09-25T22:39:20.533Z,61.70
2022-09-25T22:44:24.779Z,61.90
2022-09-25T22:49:27.381Z,62.20
2022-09-25T22:54:29.985Z,62.10
2022-09-25T22:59:35.181Z,62.00
2022-09-25T23:04:37.841Z,62.00
2022-09-25T23:09:40.433Z,61.90
2022-09-25T23:14:45.339Z,62.10
2022-09-25T23:19:48.019Z,62.30
2022-09-25T23:24:50.662Z,61.80
2022-09-25T23:29:54.703Z,61.90
2022-09-25T23:34:57.292Z,61.90
2022-09-25T23:40:00.002Z,61.90
2022-09-25T23:45:07.003Z,62.20
2022-09-25T23:50:09.931Z,62.20
2022-09-25T23:55:13.396Z,62.10
